Wheelwright, MA

11:20 PM EST on November 27, 2014 (GMT -0500)
Orange Municipal | Change Station
CLOSE
Current Station
Airport
Location: Orange,
Elevation: 554 ft
Nearby Weather Stations

Elev 554 ft 42.57 °N, 72.29 °W | Updated 28 minutes ago

Overcast
Overcast
28 °F
Feels Like 28 °F
N
0
Wind Variable Wind from North

Today
High -- | Low -- °F
--% Chance of Precip.
Yesterday
High -- | Low -- °F
Precip. -- in
6:53 AM 4:18 PM
Waxing Crescent, 36% visible
Pressure 30.01 in
Visibility 5.0 miles
Clouds
Dew Point 26 °F
Humidity 92%
Rainfall 0.03 in
Snow Depth Not available.
UV Not available.
Pollen .10 out of 12
Air Quality Not available.
Flu Activity Not available.
METAR KORE 280352Z AUTO 00000KT 5SM -SN BR M02/M03 A3001 RMK AO2 SLPNO P0001 T10221033 $

More Conditions Fewer Conditions

Pressure 30.01 in
Visibility 5.0 miles
Clouds
Dew Point 26 °F
Humidity 92%
Rainfall 0.03 in
Snow Depth Not available.
UV Not available.
Pollen .10 out of 12
Air Quality Not available.
Flu Activity Not available.
METAR KORE 280352Z AUTO 00000KT 5SM -SN BR M02/M03 A3001 RMK AO2 SLPNO P0001 T10221033 $

More Conditions Fewer Conditions

10-Day Weather Forecast

Almanac

Astronomy

Nov. 27, 2014 Rise Set
Actual Time
Civil Twilight
Nautical Twilight
Astronomical Twilight
Moon
Length of Visible Light
Length of Day
Tomorrow will be .
, % of the Moon is Illuminated

Today's Extremes

State Highs State Lows

Community

WunderPhotos

Upload Photos

1,774,180 photos uploaded!

WunderBlogs® & News

Nearby

Air Quality

  Air Quality AQ Index Pollutant
Not available.

Snow Depth

Station Depth Elevation

Earthquake Activity

City Distance Mag. Time & Date
Minimum magnitude displayed is 2.5.

Coastal Water Temperatures

Place Temperature

Nearby Weather Stations